Terminal Aerodrome Forecast
Issued by NWS

Home | Current Version | Previous Version | Text Only | Print | Product List | Glossary On
Versions: 1 2 3 4 5 6 7 8 9 10 11 12 13 14 15
000
FTUS45 KPSR 051726
TAFBLH
TAF
KBLH 051726Z 0518/0618 18016G24KT P6SM FEW250
     FM052200 23020G28KT P6SM FEW250
     FM060800 21007KT P6SM SCT080 SCT120=

USA.gov is the U.S. government's official web portal to all federal, state and local government web resources and services.